createdAt,value
2022-08-22T00:01:08.532Z,94.52
2022-08-22T00:02:54.938Z,93.85
2022-08-22T00:03:06.551Z,94.28
2022-08-22T00:04:15.873Z,94.49
2022-08-22T00:07:42.299Z,94.32
2022-08-22T00:11:09.767Z,94.01
2022-08-22T00:14:15.540Z,93.94
2022-08-22T00:17:20.575Z,94.62
2022-08-22T00:20:34.122Z,94.04
2022-08-22T00:23:43.840Z,94.34
2022-08-22T00:26:49.313Z,94.91
2022-08-22T00:30:11.663Z,94.84
2022-08-22T00:33:30.863Z,94.10
2022-08-22T00:36:56.689Z,94.74
2022-08-22T00:40:34.571Z,94.90
2022-08-22T00:44:00.923Z,95.21
2022-08-22T00:47:31.388Z,94.95
2022-08-22T00:50:59.586Z,94.64
2022-08-22T00:54:18.287Z,94.68
2022-08-22T00:57:26.953Z,94.61
2022-08-22T01:00:35.280Z,93.65
2022-08-22T01:03:44.801Z,94.12
2022-08-22T01:07:03.656Z,94.18
2022-08-22T01:10:33.172Z,94.66
2022-08-22T01:14:08.272Z,93.89
2022-08-22T01:17:32.978Z,94.43
2022-08-22T01:20:35.320Z,94.61
2022-08-22T01:24:02.085Z,95.03
2022-08-22T01:27:31.749Z,94.73
2022-08-22T01:30:52.359Z,95.28
2022-08-22T01:34:15.881Z,95.24
2022-08-22T01:37:55.655Z,95.25
2022-08-22T01:41:13.211Z,95.89
2022-08-22T01:44:27.599Z,95.87
2022-08-22T01:47:40.068Z,95.41
2022-08-22T01:50:51.025Z,95.22
2022-08-22T01:54:13.624Z,95.37
2022-08-22T01:57:17.093Z,95.58
2022-08-22T02:00:20.791Z,95.65
2022-08-22T02:04:01.099Z,95.40
2022-08-22T02:07:09.078Z,95.26
2022-08-22T02:10:25.482Z,95.37
2022-08-22T02:13:36.910Z,95.53
2022-08-22T02:16:42.540Z,95.06
2022-08-22T02:20:15.027Z,94.73
2022-08-22T02:23:46.879Z,95.32
2022-08-22T02:27:12.375Z,94.80
2022-08-22T02:30:21.921Z,95.48
2022-08-22T02:33:39.372Z,95.20
2022-08-22T02:36:51.856Z,95.66
2022-08-22T02:40:05.144Z,96.13
2022-08-22T02:43:13.319Z,95.98
2022-08-22T02:46:28.143Z,96.29
2022-08-22T02:49:54.248Z,95.71
2022-08-22T02:53:03.737Z,96.00
2022-08-22T02:56:22.430Z,94.92
2022-08-22T02:59:27.566Z,95.26
2022-08-22T03:02:34.615Z,95.30
2022-08-22T03:05:36.966Z,94.91
2022-08-22T03:09:00.179Z,95.35
2022-08-22T03:12:38.894Z,95.17
2022-08-22T03:15:59.647Z,95.36
2022-08-22T03:19:04.987Z,95.60
2022-08-22T03:22:23.963Z,95.34
2022-08-22T03:25:50.598Z,95.31
2022-08-22T03:29:00.684Z,94.93
2022-08-22T03:32:13.549Z,95.14
2022-08-22T03:35:42.345Z,94.68
2022-08-22T03:39:08.182Z,94.95
2022-08-22T03:42:43.261Z,94.50
2022-08-22T03:46:34.279Z,94.71
2022-08-22T03:49:52.993Z,94.67
2022-08-22T03:53:23.215Z,95.14
2022-08-22T03:56:40.943Z,95.29
2022-08-22T04:00:10.146Z,95.06
2022-08-22T04:03:56.888Z,94.57
2022-08-22T04:07:28.436Z,94.04
2022-08-22T04:10:37.596Z,94.29
2022-08-22T04:13:54.764Z,94.46
2022-08-22T04:17:20.486Z,94.57
2022-08-22T04:20:47.243Z,94.50
2022-08-22T04:24:01.459Z,94.66
2022-08-22T04:27:15.943Z,94.42
2022-08-22T04:30:31.567Z,93.83
2022-08-22T04:33:38.006Z,93.86
2022-08-22T04:36:46.118Z,94.52
2022-08-22T04:40:07.779Z,93.26
2022-08-22T04:43:30.703Z,93.15
2022-08-22T04:46:41.629Z,93.65
2022-08-22T04:49:50.773Z,93.57
2022-08-22T04:53:23.479Z,93.31
2022-08-22T04:56:38.119Z,93.64
2022-08-22T04:59:42.721Z,93.16
2022-08-22T05:02:57.823Z,93.18
2022-08-22T05:06:03.424Z,93.40
2022-08-22T05:09:16.168Z,93.06
2022-08-22T05:12:32.888Z,92.14
2022-08-22T05:15:41.643Z,92.16
2022-08-22T05:18:50.207Z,92.18
2022-08-22T05:21:52.907Z,92.18
2022-08-22T05:25:02.027Z,92.05
2022-08-22T05:28:13.595Z,91.56
2022-08-22T05:31:23.210Z,90.87
2022-08-22T05:34:32.841Z,91.34
2022-08-22T05:37:47.490Z,91.35
2022-08-22T05:41:03.348Z,89.92
2022-08-22T05:44:15.472Z,90.23
2022-08-22T05:47:33.467Z,90.53
2022-08-22T05:50:43.315Z,90.44
2022-08-22T05:53:51.230Z,89.99
2022-08-22T05:57:07.434Z,91.23
2022-08-22T06:00:17.298Z,91.72
2022-08-22T06:03:34.115Z,90.63
2022-08-22T06:06:59.998Z,90.54
2022-08-22T06:10:08.415Z,90.90
2022-08-22T06:13:33.211Z,91.74
2022-08-22T06:16:48.660Z,91.59
2022-08-22T06:19:54.127Z,91.84
2022-08-22T06:23:01.846Z,91.53
2022-08-22T06:26:06.691Z,90.24
2022-08-22T06:29:46.676Z,88.72
2022-08-22T06:32:58.893Z,87.90
2022-08-22T06:36:30.607Z,87.39
2022-08-22T06:39:36.615Z,87.64
2022-08-22T06:42:45.126Z,87.75
2022-08-22T06:45:48.738Z,86.55
2022-08-22T06:48:54.331Z,87.12
2022-08-22T06:52:03.656Z,87.17
2022-08-22T06:55:07.980Z,86.74
2022-08-22T06:58:18.190Z,87.19
2022-08-22T07:01:29.865Z,87.18
2022-08-22T07:04:32.456Z,87.96
2022-08-22T07:07:36.136Z,87.41
2022-08-22T07:10:49.149Z,87.64
2022-08-22T07:14:00.092Z,88.14
2022-08-22T07:17:05.406Z,87.49
2022-08-22T07:20:35.142Z,86.83
2022-08-22T07:23:44.604Z,86.51
2022-08-22T07:27:31.436Z,86.31
2022-08-22T07:31:03.382Z,87.06
2022-08-22T07:34:14.786Z,87.21
2022-08-22T07:37:31.864Z,87.14
2022-08-22T07:41:09.867Z,86.25
2022-08-22T07:44:18.046Z,86.18
2022-08-22T07:47:26.260Z,86.49
2022-08-22T07:50:34.398Z,87.26
2022-08-22T07:53:39.456Z,87.05
2022-08-22T07:56:46.745Z,85.91
2022-08-22T07:59:53.676Z,84.70
2022-08-22T08:03:06.172Z,84.89
2022-08-22T08:06:10.100Z,85.21
2022-08-22T08:09:16.815Z,85.85
2022-08-22T08:12:24.656Z,85.12
2022-08-22T08:15:27.277Z,83.93
2022-08-22T08:18:34.000Z,83.03
2022-08-22T08:21:49.936Z,81.62
2022-08-22T08:24:55.983Z,80.52
2022-08-22T08:28:18.597Z,79.94
2022-08-22T08:31:38.165Z,80.02
2022-08-22T08:34:52.278Z,78.84
2022-08-22T08:38:08.852Z,79.05
2022-08-22T08:41:32.711Z,78.88
2022-08-22T08:44:41.640Z,78.66
2022-08-22T08:48:05.236Z,79.77
2022-08-22T08:51:25.484Z,81.93
2022-08-22T08:54:58.391Z,83.38
2022-08-22T08:58:43.473Z,83.44
2022-08-22T09:02:23.726Z,81.82
2022-08-22T09:05:54.055Z,79.37
2022-08-22T09:09:33.151Z,81.32
2022-08-22T09:13:12.504Z,80.46
2022-08-22T09:16:51.609Z,80.71
2022-08-22T09:20:20.133Z,82.15
2022-08-22T09:23:59.252Z,82.15
2022-08-22T09:27:37.087Z,82.58
2022-08-22T09:30:54.256Z,84.00
2022-08-22T09:34:23.984Z,82.54
2022-08-22T09:38:02.712Z,83.30
2022-08-22T09:41:11.143Z,83.80
2022-08-22T09:44:33.162Z,82.73
2022-08-22T09:47:57.218Z,82.30
2022-08-22T09:51:31.803Z,80.70
2022-08-22T09:54:46.167Z,78.61
2022-08-22T09:58:15.099Z,79.10
2022-08-22T10:01:32.747Z,78.60
2022-08-22T10:04:40.715Z,77.31
2022-08-22T10:08:06.519Z,76.22
2022-08-22T10:11:34.416Z,76.64
2022-08-22T10:15:13.972Z,77.28
2022-08-22T10:18:31.015Z,76.71
2022-08-22T10:21:39.689Z,75.81
2022-08-22T10:24:47.858Z,76.71
2022-08-22T10:28:23.892Z,77.80
2022-08-22T10:31:33.859Z,78.27
2022-08-22T10:34:42.918Z,76.70
2022-08-22T10:38:00.492Z,78.66
2022-08-22T10:41:37.531Z,79.31
2022-08-22T10:45:13.882Z,77.93
2022-08-22T10:48:39.665Z,77.87
2022-08-22T10:51:51.882Z,78.18
2022-08-22T10:55:13.523Z,76.70
2022-08-22T10:58:24.963Z,77.04
2022-08-22T11:01:48.633Z,76.77
2022-08-22T11:05:09.281Z,76.45
2022-08-22T11:08:52.193Z,74.51
2022-08-22T11:11:58.173Z,72.86
2022-08-22T11:15:34.796Z,71.11
2022-08-22T11:19:14.996Z,71.48
2022-08-22T11:22:33.970Z,73.00
2022-08-22T11:26:14.982Z,74.96
2022-08-22T11:29:35.770Z,75.15
2022-08-22T11:32:59.596Z,74.30
2022-08-22T11:36:18.825Z,75.53
2022-08-22T11:39:38.933Z,75.88
2022-08-22T11:42:49.497Z,74.83
2022-08-22T11:45:56.727Z,74.65
2022-08-22T11:49:18.912Z,75.79
2022-08-22T11:52:24.298Z,75.06
2022-08-22T11:55:53.804Z,75.33
2022-08-22T11:58:59.814Z,75.86
2022-08-22T12:02:10.926Z,75.01
2022-08-22T12:05:24.489Z,75.67
2022-08-22T12:08:35.411Z,75.48
2022-08-22T12:12:19.044Z,74.62
2022-08-22T12:15:27.748Z,75.24
2022-08-22T12:18:45.223Z,75.04
2022-08-22T12:22:08.958Z,75.54
2022-08-22T12:25:29.640Z,75.82
2022-08-22T12:28:54.135Z,75.14
2022-08-22T12:32:45.736Z,76.43
2022-08-22T12:35:57.177Z,76.83
2022-08-22T12:39:28.781Z,75.67
2022-08-22T12:42:49.405Z,74.23
2022-08-22T12:46:13.075Z,74.20
2022-08-22T12:49:30.617Z,74.92
2022-08-22T12:52:41.906Z,75.19
2022-08-22T12:56:01.886Z,75.67
2022-08-22T12:59:43.218Z,75.34
2022-08-22T13:02:46.732Z,75.53
2022-08-22T13:05:56.838Z,75.26
2022-08-22T13:09:19.917Z,75.91
2022-08-22T13:12:40.119Z,75.65
2022-08-22T13:15:56.674Z,76.80
2022-08-22T13:19:13.741Z,76.37
2022-08-22T13:22:21.620Z,77.50
2022-08-22T13:25:26.938Z,77.59
2022-08-22T13:28:33.359Z,77.61
2022-08-22T13:31:38.934Z,76.76
2022-08-22T13:34:52.656Z,77.27
2022-08-22T13:38:05.000Z,77.98
2022-08-22T13:41:09.052Z,77.55
2022-08-22T13:44:21.263Z,77.93
2022-08-22T13:47:26.995Z,79.03
2022-08-22T13:50:53.402Z,80.71
2022-08-22T13:54:12.158Z,78.96
2022-08-22T13:57:24.618Z,79.00
2022-08-22T14:00:35.860Z,79.59
2022-08-22T14:03:48.520Z,79.54
2022-08-22T14:06:56.892Z,78.52
2022-08-22T14:10:18.295Z,79.15
2022-08-22T14:13:45.367Z,77.44
2022-08-22T14:16:50.923Z,77.72
2022-08-22T14:20:01.510Z,76.43
2022-08-22T14:23:16.296Z,77.19
2022-08-22T14:26:47.350Z,76.26
2022-08-22T14:29:57.763Z,76.58
2022-08-22T14:33:22.252Z,77.27
2022-08-22T14:36:49.001Z,77.14
2022-08-22T14:40:13.396Z,77.27
2022-08-22T14:43:35.672Z,78.60
2022-08-22T14:46:46.672Z,78.77
2022-08-22T14:49:59.533Z,78.71
2022-08-22T14:53:11.958Z,78.56
2022-08-22T14:56:14.737Z,79.45
2022-08-22T14:59:43.958Z,79.91
2022-08-22T15:02:46.661Z,78.81
2022-08-22T15:05:51.259Z,79.26
2022-08-22T15:08:53.910Z,79.54
2022-08-22T15:11:56.454Z,79.83
2022-08-22T15:15:01.932Z,79.31
2022-08-22T15:18:17.687Z,79.60
2022-08-22T15:21:26.167Z,79.39
2022-08-22T15:24:28.765Z,79.02
2022-08-22T15:27:34.459Z,78.77
2022-08-22T15:30:44.055Z,79.45
2022-08-22T15:33:48.643Z,80.05
2022-08-22T15:37:07.799Z,81.28
2022-08-22T15:40:30.900Z,81.45
2022-08-22T15:43:36.338Z,82.07
2022-08-22T15:46:58.090Z,81.60
2022-08-22T15:50:05.430Z,81.77
2022-08-22T15:53:40.137Z,82.04
2022-08-22T15:57:15.350Z,82.57
2022-08-22T16:00:24.608Z,81.34
2022-08-22T16:03:34.317Z,81.05
2022-08-22T16:06:54.542Z,82.45
2022-08-22T16:09:59.617Z,81.97
2022-08-22T16:13:16.077Z,82.67
2022-08-22T16:16:55.679Z,83.09
2022-08-22T16:20:15.877Z,82.72
2022-08-22T16:23:22.756Z,83.07
2022-08-22T16:26:31.167Z,82.36
2022-08-22T16:29:41.405Z,82.89
2022-08-22T16:32:52.334Z,82.82
2022-08-22T16:36:18.920Z,82.85
2022-08-22T16:39:21.435Z,82.57
2022-08-22T16:42:27.268Z,82.89
2022-08-22T16:45:40.955Z,83.10
2022-08-22T16:48:45.410Z,82.87
2022-08-22T16:52:24.849Z,83.29
2022-08-22T16:55:30.099Z,82.96
2022-08-22T16:59:23.595Z,82.89
2022-08-22T17:02:43.486Z,83.12
2022-08-22T17:06:10.310Z,83.15
2022-08-22T17:09:46.396Z,83.55
2022-08-22T17:13:09.800Z,83.43
2022-08-22T17:16:26.923Z,84.03
2022-08-22T17:19:59.513Z,83.97
2022-08-22T17:23:39.352Z,84.08
2022-08-22T17:26:56.512Z,83.36
2022-08-22T17:30:28.615Z,83.81
2022-08-22T17:34:04.706Z,83.34
2022-08-22T17:37:28.681Z,83.65
2022-08-22T17:40:43.051Z,83.46
2022-08-22T17:44:10.158Z,82.62
2022-08-22T17:47:18.067Z,83.35
2022-08-22T17:50:32.520Z,83.92
2022-08-22T17:53:53.512Z,83.83
2022-08-22T17:57:22.565Z,84.71
2022-08-22T18:00:41.755Z,84.85
2022-08-22T18:03:53.100Z,84.84
2022-08-22T18:07:26.971Z,84.85
2022-08-22T18:10:41.916Z,84.95
2022-08-22T18:14:05.210Z,84.52
2022-08-22T18:17:49.414Z,84.81
2022-08-22T18:21:03.634Z,85.04
2022-08-22T18:24:34.947Z,84.72
2022-08-22T18:27:51.058Z,84.74
2022-08-22T18:31:09.732Z,85.13
2022-08-22T18:34:25.406Z,85.84
2022-08-22T18:37:35.427Z,86.58
2022-08-22T18:40:50.222Z,85.56
2022-08-22T18:43:56.339Z,84.99
2022-08-22T18:47:12.607Z,85.30
2022-08-22T18:50:33.624Z,85.29
2022-08-22T18:53:46.176Z,85.22
2022-08-22T18:57:02.776Z,85.48
2022-08-22T19:00:14.612Z,86.36
2022-08-22T19:03:53.949Z,85.43
2022-08-22T19:07:08.275Z,85.36
2022-08-22T19:10:49.019Z,86.16
2022-08-22T19:13:59.254Z,86.50
2022-08-22T19:17:15.032Z,86.94
2022-08-22T19:20:51.719Z,86.57
2022-08-22T19:23:55.637Z,85.91
2022-08-22T19:27:18.251Z,85.55
2022-08-22T19:30:45.543Z,85.36
2022-08-22T19:34:09.788Z,85.82
2022-08-22T19:37:31.978Z,86.20
2022-08-22T19:40:50.307Z,86.10
2022-08-22T19:43:52.745Z,86.37
2022-08-22T19:47:24.356Z,86.47
2022-08-22T19:50:32.139Z,86.47
2022-08-22T19:53:56.267Z,87.86
2022-08-22T19:57:06.955Z,87.92
2022-08-22T20:00:22.778Z,88.77
2022-08-22T20:03:43.200Z,88.93
2022-08-22T20:07:15.045Z,89.14
2022-08-22T20:10:50.086Z,89.81
2022-08-22T20:14:22.524Z,89.76
2022-08-22T20:17:43.670Z,89.94
2022-08-22T20:20:59.891Z,90.11
2022-08-22T20:24:14.415Z,90.49
2022-08-22T20:27:29.620Z,90.41
2022-08-22T20:30:39.683Z,90.44
2022-08-22T20:33:46.158Z,90.34
2022-08-22T20:36:59.761Z,90.11
2022-08-22T20:40:51.874Z,90.57
2022-08-22T20:43:49.924Z,91.12
2022-08-22T20:47:00.422Z,91.28
2022-08-22T20:50:10.388Z,91.34
2022-08-22T20:53:17.495Z,91.23
2022-08-22T20:56:50.675Z,90.69
2022-08-22T21:00:19.248Z,90.80
2022-08-22T21:03:40.963Z,90.42
2022-08-22T21:06:43.359Z,90.74
2022-08-22T21:10:12.711Z,91.02
2022-08-22T21:13:23.192Z,90.65
2022-08-22T21:16:33.002Z,90.41
2022-08-22T21:19:35.444Z,90.10
2022-08-22T21:22:37.887Z,90.14
2022-08-22T21:26:00.917Z,90.01
2022-08-22T21:29:03.343Z,90.25
2022-08-22T21:32:14.495Z,90.21
2022-08-22T21:35:29.911Z,89.89
2022-08-22T21:38:32.419Z,90.23
2022-08-22T21:41:39.272Z,90.42
2022-08-22T21:44:43.675Z,89.99
2022-08-22T21:47:46.044Z,90.21
2022-08-22T21:50:48.524Z,90.01
2022-08-22T21:53:56.082Z,90.02
2022-08-22T21:57:17.264Z,89.92
2022-08-22T22:00:40.208Z,90.11
2022-08-22T22:03:51.056Z,90.03
2022-08-22T22:06:53.643Z,89.98
2022-08-22T22:09:56.699Z,89.95
2022-08-22T22:12:59.119Z,90.44
2022-08-22T22:16:01.592Z,90.23
2022-08-22T22:19:07.382Z,89.87
2022-08-22T22:22:09.804Z,89.84
2022-08-22T22:25:38.772Z,90.07
2022-08-22T22:28:39.234Z,89.66
2022-08-22T22:31:41.620Z,89.97
2022-08-22T22:34:44.536Z,89.74
2022-08-22T22:37:56.050Z,89.75
2022-08-22T22:40:58.480Z,89.70
2022-08-22T22:44:01.599Z,89.34
2022-08-22T22:47:04.231Z,89.85
2022-08-22T22:50:07.371Z,89.59
2022-08-22T22:53:11.288Z,89.58
2022-08-22T22:56:16.562Z,89.57
2022-08-22T22:59:18.978Z,89.40
2022-08-22T23:02:27.374Z,89.63
2022-08-22T23:05:30.638Z,89.56
2022-08-22T23:08:33.140Z,89.50
2022-08-22T23:11:35.766Z,89.27
2022-08-22T23:14:38.132Z,89.22
2022-08-22T23:17:41.258Z,89.00
2022-08-22T23:20:43.648Z,89.28
2022-08-22T23:23:46.959Z,88.85
2022-08-22T23:26:49.668Z,88.69
2022-08-22T23:29:52.099Z,88.53
2022-08-22T23:32:55.747Z,89.15
2022-08-22T23:35:59.976Z,89.31
2022-08-22T23:39:05.533Z,89.42
2022-08-22T23:42:09.914Z,89.35
2022-08-22T23:45:12.393Z,89.50
2022-08-22T23:48:14.781Z,89.39
2022-08-22T23:51:22.339Z,89.61
2022-08-22T23:54:25.707Z,89.81
2022-08-22T23:57:29.544Z,89.57
